Terminal Aerodrome Forecast
Issued by NWS Sterling, VA

Current Version | Previous Version | Text Only | Print | Product List | Glossary Off
Versions: 1 2 3 4 5 6 7 8 9 10 11 12 13 14 15 16 17 18 19 20 21 22 23

635
FTUS41 KLWX 211738
TAFMRB
TAF
KMRB 211738Z 2118/2218 03004KT 2SM -SHRA BR OVC008
     FM220600 36004KT 3SM -SHRA BR OVC008=

USA.gov is the U.S. government's official web portal to all federal, state and local government web resources and services.